Union Mills, IN (46382)

9:47 PM CST on December 08, 2016 (GMT -0600)
La Porte Municipal | | Change Station
Active Advisory: Winter Weather Advisory

Elev 810 ft 41.57 °N, 86.73 °W | Updated 12 minutes ago

Overcast
Overcast
23 °F
Feels Like 12 °F
N
12
Wind Variable Wind from WSW
Gusts 16 mph

Today
High -- | Low -- °F
--% Chance of Precip.
Yesterday
High -- | Low -- °F
Precip. -- in
Pressure 30.38 in
Visibility 10.0 miles
Clouds Overcast 2700 ft
Windchill 12 °F
Dew Point 16 °F
Humidity 77%
Rainfall 0.00 in
Snow Depth Not available.
7:01 AM 4:17 PM
Waxing Gibbous, 69% visible
METAR KPPO 090335Z AUTO 24010G14KT 10SM -SN OVC027 M05/M09 A3038 RMK AO2 T10511086
Pressure 30.38 in
Visibility 10.0 miles
Clouds Overcast 2700 ft
Windchill 12 °F
Dew Point 16 °F
Humidity 77%
Rainfall 0.00 in
Snow Depth Not available.
7:01 AM 4:17 PM
Waxing Gibbous, 69% visible
METAR KPPO 090335Z AUTO 24010G14KT 10SM -SN OVC027 M05/M09 A3038 RMK AO2 T10511086

10-Day Weather Forecast

Almanac

Astronomy

Dec. 08, 2016 Rise Set
Actual Time
Civil Twilight
Nautical Twilight
Astronomical Twilight
Moon
Length of Visible Light
Length of Day
Tomorrow will be .
, % of the Moon is Illuminated

Today's Extremes

State Highs State Lows

Community

WunderPhotos

Upload Photos

1,956,351 photos uploaded!

WunderBlog® & News

Nearby

Air Quality

  Air Quality AQ Index Pollutant
Not available.

Snow Depth

Station Depth Elevation

Earthquake Activity

City Distance Mag. Time & Date
Minimum magnitude displayed is 2.5.

Coastal Water Temperatures

Place Temperature

Stations

Nearby Weather Stations

Station Location Temp. Windchill Dew Point Humidity Wind Precip. Elev Updated Type
                   

Watches & Warnings

Winter Weather Advisory
Issued: 7:55 PM CST Dec. 8, 2016 – National Weather Service

... Winter Weather Advisory remains in effect until 4 PM EST /3 PM
CST/ Friday...

Hazardous weather...

* lake effect snow showers with blowing and drifting snow will
   expand in coverage and increase in intensity through the
   overnight. The heaviest snow is expected from midnight to 9 am
   Friday.

* Snow accumulations of 3 to 6 inches are possible by late
   Friday. Lesser accumulations are expected across the central
   and southern portions of La Porte County.

* Wind chills 10 above to 15 above zero.

Impacts...

* snow covered and slippery roads are expected especially from
   late this evening into Friday morning.

* Reduced visibility can be expected in the heavier snow
   showers.

Precautionary/preparedness actions...

A Winter Weather Advisory for lake effect snow and drifting snow
means that visibilities will be limited due to a combination of
falling and blowing snow. Use caution when traveling...
especially in open areas.